createdAt,value
2018-04-27T00:02:27.113Z,102076.70
2018-04-27T00:05:30.391Z,102079.21
2018-04-27T00:08:33.679Z,102084.67
2018-04-27T00:11:37.034Z,102082.34
2018-04-27T00:14:40.329Z,102074.61
2018-04-27T00:17:43.745Z,102076.11
2018-04-27T00:20:48.055Z,102076.53
2018-04-27T00:23:51.357Z,102074.23
2018-04-27T00:26:54.736Z,102068.01
2018-04-27T00:29:59.000Z,102063.95
2018-04-27T00:33:02.182Z,102065.22
2018-04-27T00:36:05.517Z,102063.53
2018-04-27T00:39:08.872Z,102066.05
2018-04-27T00:42:12.269Z,102059.60
2018-04-27T00:45:15.661Z,102058.95
2018-04-27T00:48:18.829Z,102055.17
2018-04-27T00:51:22.104Z,102051.04
2018-04-27T00:54:25.446Z,102046.46
2018-04-27T00:57:29.743Z,102041.51
2018-04-27T01:00:33.069Z,102038.98
2018-04-27T01:03:36.285Z,102041.17
2018-04-27T01:06:39.503Z,102040.92
2018-04-27T01:09:42.768Z,102039.50
2018-04-27T01:12:46.091Z,102037.15
2018-04-27T01:15:49.425Z,102034.86
2018-04-27T01:18:52.797Z,102027.91
2018-04-27T01:21:56.156Z,102026.42
2018-04-27T01:25:00.476Z,102025.25
2018-04-27T01:28:05.820Z,102021.47
2018-04-27T01:31:09.245Z,102017.02
2018-04-27T01:34:12.460Z,102015.59
2018-04-27T01:37:15.815Z,102015.77
2018-04-27T01:40:20.259Z,102016.07
2018-04-27T01:43:23.550Z,102013.46
2018-04-27T01:46:26.993Z,102016.21
2018-04-27T01:49:30.347Z,102010.61
2018-04-27T01:52:33.572Z,102016.46
2018-04-27T01:55:36.924Z,102011.17
2018-04-27T01:58:40.212Z,102011.00
2018-04-27T02:01:43.530Z,102009.61
2018-04-27T02:04:46.940Z,102008.13
2018-04-27T02:07:51.435Z,101999.01
2018-04-27T02:10:54.837Z,101996.61
2018-04-27T02:13:58.242Z,101991.67
2018-04-27T02:17:01.539Z,101991.54
2018-04-27T02:20:04.999Z,101986.81
2018-04-27T02:23:08.344Z,101980.71
2018-04-27T02:26:11.640Z,101979.31
2018-04-27T02:29:15.039Z,101974.73
2018-04-27T02:32:18.356Z,101971.63
2018-04-27T02:35:21.630Z,101968.97
2018-04-27T02:38:26.039Z,101965.47
2018-04-27T02:41:29.346Z,101965.39
2018-04-27T02:44:32.679Z,101968.07
2018-04-27T02:47:36.074Z,101965.24
2018-04-27T02:50:39.372Z,101967.79
2018-04-27T02:53:43.660Z,101960.25
2018-04-27T02:56:47.093Z,101963.42
2018-04-27T02:59:50.377Z,101956.69
2018-04-27T03:02:53.660Z,101948.04
2018-04-27T03:05:58.091Z,101942.58
2018-04-27T03:09:01.315Z,101938.02
2018-04-27T03:12:04.603Z,101933.24
2018-04-27T03:15:08.004Z,101932.58
2018-04-27T03:18:11.361Z,101928.19
2018-04-27T03:21:14.678Z,101924.71
2018-04-27T03:24:18.966Z,101924.22
2018-04-27T03:27:22.216Z,101921.54
2018-04-27T03:30:25.804Z,101914.48
2018-04-27T03:33:29.104Z,101916.21
2018-04-27T03:36:32.432Z,101911.46
2018-04-27T03:39:35.806Z,101908.78
2018-04-27T03:42:39.151Z,101906.32
2018-04-27T03:45:42.468Z,101897.07
2018-04-27T03:48:45.681Z,101893.84
2018-04-27T03:51:49.135Z,101896.09
2018-04-27T03:54:52.388Z,101884.28
2018-04-27T03:57:56.554Z,101869.86
2018-04-27T04:02:09.885Z,101871.05
2018-04-27T04:05:27.185Z,101870.55
2018-04-27T04:08:30.568Z,101866.65
2018-04-27T04:11:33.861Z,101867.34
2018-04-27T04:14:37.111Z,101865.18
2018-04-27T04:17:40.453Z,101861.81
2018-04-27T04:20:44.028Z,101859.35
2018-04-27T04:23:47.362Z,101853.40
2018-04-27T04:26:51.895Z,101853.38
2018-04-27T04:29:55.912Z,101849.13
2018-04-27T04:32:59.192Z,101844.91
2018-04-27T04:36:02.521Z,101849.36
2018-04-27T04:39:06.049Z,101842.13
2018-04-27T04:42:09.242Z,101841.84
2018-04-27T04:45:12.602Z,101848.13
2018-04-27T04:48:15.891Z,101852.68
2018-04-27T04:51:19.196Z,101857.73
2018-04-27T04:54:22.486Z,101856.41
2018-04-27T04:57:26.974Z,101850.67
2018-04-27T05:00:30.330Z,101845.37
2018-04-27T05:03:33.711Z,101837.73
2018-04-27T05:06:36.984Z,101837.98
2018-04-27T05:09:40.325Z,101835.79
2018-04-27T05:12:43.592Z,101835.85
2018-04-27T05:15:46.947Z,101836.64
2018-04-27T05:18:50.313Z,101827.37
2018-04-27T05:21:54.675Z,101825.06
2018-04-27T05:24:57.997Z,101819.66
2018-04-27T05:28:01.349Z,101822.47
2018-04-27T05:31:13.483Z,101814.14
2018-04-27T05:34:16.822Z,101815.81
2018-04-27T05:37:20.107Z,101805.00
2018-04-27T05:40:24.371Z,101799.24
2018-04-27T05:43:28.560Z,101798.03
2018-04-27T05:46:31.945Z,101800.05
2018-04-27T05:49:35.250Z,101796.45
2018-04-27T05:52:38.648Z,101793.92
2018-04-27T05:55:41.904Z,101797.14
2018-04-27T05:58:45.235Z,101790.89
2018-04-27T06:01:48.671Z,101780.87
2018-04-27T06:04:52.061Z,101780.67
2018-04-27T06:07:56.437Z,101777.36
2018-04-27T06:10:59.738Z,101764.90
2018-04-27T06:14:03.058Z,101759.11
2018-04-27T06:17:06.270Z,101754.12
2018-04-27T06:20:09.723Z,101749.69
2018-04-27T06:23:13.197Z,101757.58
2018-04-27T06:26:16.710Z,101752.85
2018-04-27T06:29:19.936Z,101751.33
2018-04-27T06:32:23.252Z,101743.36
2018-04-27T06:35:27.005Z,101748.54
2018-04-27T06:38:30.340Z,101736.75
2018-04-27T06:41:33.776Z,101735.01
2018-04-27T06:44:37.075Z,101733.60
2018-04-27T06:47:42.261Z,101718.43
2018-04-27T06:50:46.304Z,101716.02
2018-04-27T06:53:49.534Z,101713.44
2018-04-27T06:56:52.933Z,101714.06
2018-04-27T06:59:58.312Z,101713.82
2018-04-27T07:03:01.681Z,101704.19
2018-04-27T07:06:04.983Z,101703.54
2018-04-27T07:09:08.537Z,101704.25
2018-04-27T07:12:12.036Z,101704.78
2018-04-27T07:15:15.467Z,101697.34
2018-04-27T07:18:18.747Z,101700.79
2018-04-27T07:21:22.238Z,101699.18
2018-04-27T07:24:26.056Z,101698.64
2018-04-27T07:27:29.428Z,101692.32
2018-04-27T07:30:32.906Z,101683.28
2018-04-27T07:33:36.304Z,101681.45
2018-04-27T07:36:40.603Z,101675.59
2018-04-27T07:39:44.133Z,101669.86
2018-04-27T07:42:48.588Z,101661.62
2018-04-27T07:45:51.892Z,101660.98
2018-04-27T07:48:55.070Z,101649.35
2018-04-27T07:51:59.672Z,101645.99
2018-04-27T07:55:03.917Z,101642.35
2018-04-27T07:58:07.261Z,101640.96
2018-04-27T08:01:10.593Z,101636.56
2018-04-27T08:04:13.940Z,101633.31
2018-04-27T08:07:17.411Z,101622.43
2018-04-27T08:10:20.658Z,101616.26
2018-04-27T08:13:23.921Z,101611.34
2018-04-27T08:16:28.329Z,101612.06
2018-04-27T08:19:32.056Z,101610.34
2018-04-27T08:22:35.581Z,101599.21
2018-04-27T08:25:38.915Z,101596.18
2018-04-27T08:28:42.472Z,101586.41
2018-04-27T08:31:45.764Z,101581.16
2018-04-27T08:34:48.932Z,101571.44
2018-04-27T08:37:52.329Z,101564.82
2018-04-27T08:41:00.319Z,101558.73
2018-04-27T08:44:03.745Z,101549.48
2018-04-27T08:47:07.110Z,101546.39
2018-04-27T08:50:10.464Z,101547.78
2018-04-27T08:53:13.820Z,101538.83
2018-04-27T08:56:18.170Z,101533.07
2018-04-27T08:59:21.537Z,101532.87
2018-04-27T09:02:24.849Z,101512.89
2018-04-27T09:05:28.795Z,101520.18
2018-04-27T09:08:32.113Z,101507.79
2018-04-27T09:11:35.380Z,101505.77
2018-04-27T09:14:39.705Z,101497.76
2018-04-27T09:17:43.075Z,101492.94
2018-04-27T09:20:46.452Z,101485.63
2018-04-27T09:23:49.766Z,101485.55
2018-04-27T09:26:53.066Z,101484.19
2018-04-27T09:29:56.257Z,101485.52
2018-04-27T09:32:59.782Z,101471.09
2018-04-27T09:36:04.189Z,101472.26
2018-04-27T09:39:07.441Z,101463.97
2018-04-27T09:42:10.761Z,101467.57
2018-04-27T09:45:14.101Z,101462.96
2018-04-27T09:48:17.374Z,101455.87
2018-04-27T09:51:20.872Z,101449.31
2018-04-27T09:54:24.094Z,101437.80
2018-04-27T09:57:27.557Z,101429.19
2018-04-27T10:00:30.929Z,101432.06
2018-04-27T10:03:34.207Z,101430.56
2018-04-27T10:06:37.578Z,101435.96
2018-04-27T10:09:40.958Z,101426.64
2018-04-27T10:12:44.343Z,101418.17
2018-04-27T10:15:47.672Z,101409.51
2018-04-27T10:18:52.136Z,101397.11
2018-04-27T10:21:55.544Z,101386.03
2018-04-27T10:24:58.848Z,101378.31
2018-04-27T10:28:02.130Z,101368.64
2018-04-27T10:31:11.504Z,101372.17
2018-04-27T10:34:14.737Z,101368.35
2018-04-27T10:37:18.299Z,101356.13
2018-04-27T10:40:21.733Z,101355.25
2018-04-27T10:43:25.333Z,101346.41
2018-04-27T10:46:28.484Z,101339.23
2018-04-27T10:49:31.759Z,101335.95
2018-04-27T10:52:35.126Z,101329.57
2018-04-27T10:55:38.531Z,101332.09
2018-04-27T10:58:41.730Z,101313.34
2018-04-27T11:01:45.145Z,101303.80
2018-04-27T11:04:48.582Z,101295.85
2018-04-27T11:07:52.124Z,101289.29
2018-04-27T11:10:55.316Z,101278.51
2018-04-27T11:13:58.572Z,101267.18
2018-04-27T11:17:02.036Z,101257.14
2018-04-27T11:20:05.831Z,101261.25
2018-04-27T11:23:08.967Z,101258.63
2018-04-27T11:26:12.218Z,101257.17
2018-04-27T11:29:16.377Z,101249.10
2018-04-27T11:32:19.660Z,101252.07
2018-04-27T11:35:23.039Z,101250.73
2018-04-27T11:38:26.389Z,101235.89
2018-04-27T11:41:29.674Z,101229.22
2018-04-27T11:44:33.012Z,101216.60
2018-04-27T11:47:37.686Z,101217.36
2018-04-27T11:50:41.088Z,101211.24
2018-04-27T11:53:44.362Z,101200.20
2018-04-27T11:56:47.746Z,101204.41
2018-04-27T11:59:51.776Z,101194.38
2018-04-27T12:02:55.184Z,101189.75
2018-04-27T12:05:58.569Z,101189.01
2018-04-27T12:09:01.983Z,101176.63
2018-04-27T12:12:06.399Z,101179.49
2018-04-27T12:15:09.681Z,101166.01
2018-04-27T12:18:14.135Z,101167.28
2018-04-27T12:21:17.836Z,101164.91
2018-04-27T12:24:21.206Z,101161.35
2018-04-27T12:27:24.502Z,101151.63
2018-04-27T12:30:27.755Z,101153.99
2018-04-27T12:33:31.111Z,101163.49
2018-04-27T12:36:36.352Z,101157.38
2018-04-27T12:39:39.755Z,101156.21
2018-04-27T12:42:43.588Z,101152.59
2018-04-27T12:45:46.970Z,101138.64
2018-04-27T12:48:50.255Z,101152.64
2018-04-27T12:51:53.598Z,101147.96
2018-04-27T12:54:56.911Z,101149.86
2018-04-27T12:58:00.221Z,101141.38
2018-04-27T13:01:03.544Z,101137.18
2018-04-27T13:04:06.691Z,101126.46
2018-04-27T13:07:09.989Z,101129.22
2018-04-27T13:10:13.951Z,101119.67
2018-04-27T13:13:17.607Z,101111.41
2018-04-27T13:16:20.868Z,101110.85
2018-04-27T13:19:24.257Z,101099.48
2018-04-27T13:22:27.636Z,101094.62
2018-04-27T13:25:30.948Z,101083.92
2018-04-27T13:28:34.314Z,101070.25
2018-04-27T13:31:37.564Z,101065.74
2018-04-27T13:34:40.829Z,101062.73
2018-04-27T13:37:44.526Z,101055.47
2018-04-27T13:40:47.999Z,101047.29
2018-04-27T13:43:52.022Z,101046.64
2018-04-27T13:46:55.606Z,101032.65
2018-04-27T13:49:59.026Z,101016.83
2018-04-27T13:53:02.523Z,101007.90
2018-04-27T13:56:06.771Z,101007.23
2018-04-27T13:59:10.510Z,101009.60
2018-04-27T14:02:14.205Z,101005.30
2018-04-27T14:05:17.566Z,100994.51
2018-04-27T14:08:21.082Z,100990.04
2018-04-27T14:11:24.656Z,100980.68
2018-04-27T14:14:28.175Z,100987.25
2018-04-27T14:17:31.785Z,100984.57
2018-04-27T14:20:36.618Z,100981.96
2018-04-27T14:23:40.243Z,100979.81
2018-04-27T14:26:44.152Z,100976.72
2018-04-27T14:29:48.160Z,100968.04
2018-04-27T14:32:51.739Z,100964.13
2018-04-27T14:35:55.730Z,100953.42
2018-04-27T14:38:59.386Z,100940.13
2018-04-27T14:42:03.395Z,100921.27
2018-04-27T14:45:07.807Z,100916.63
2018-04-27T14:48:11.405Z,100915.38
2018-04-27T14:51:15.333Z,100907.05
2018-04-27T14:54:18.901Z,100901.19
2018-04-27T14:57:22.945Z,100893.10
2018-04-27T15:00:26.965Z,100899.42
2018-04-27T15:03:31.062Z,100897.18
2018-04-27T15:06:34.982Z,100897.04
2018-04-27T15:09:39.012Z,100891.99
2018-04-27T15:12:43.030Z,100888.52
2018-04-27T15:15:47.019Z,100888.80
2018-04-27T15:18:52.013Z,100897.31
2018-04-27T15:21:55.545Z,100892.05
2018-04-27T15:24:59.204Z,100890.88
2018-04-27T15:28:03.071Z,100894.66
2018-04-27T15:31:08.173Z,100893.54
2018-04-27T15:34:12.129Z,100887.21
2018-04-27T15:37:22.713Z,100887.35
2018-04-27T15:40:26.035Z,100887.40
2018-04-27T15:43:29.597Z,100882.49
2018-04-27T15:46:32.833Z,100878.00
2018-04-27T15:49:36.086Z,100880.37
2018-04-27T15:52:39.442Z,100881.67
2018-04-27T15:55:42.700Z,100882.04
2018-04-27T15:58:46.177Z,100878.05
2018-04-27T16:01:49.546Z,100877.88
2018-04-27T16:04:52.872Z,100878.75
2018-04-27T16:07:56.803Z,100882.07
2018-04-27T16:11:00.140Z,100876.38
2018-04-27T16:14:04.593Z,100873.76
2018-04-27T16:17:07.893Z,100867.99
2018-04-27T16:20:11.363Z,100865.46
2018-04-27T16:23:14.672Z,100863.52
2018-04-27T16:26:18.709Z,100864.87
2018-04-27T16:29:22.191Z,100863.92
2018-04-27T16:32:25.429Z,100868.77
2018-04-27T16:35:29.341Z,100866.08
2018-04-27T16:38:32.759Z,100874.30
2018-04-27T16:41:36.134Z,100870.89
2018-04-27T16:44:39.488Z,100875.62
2018-04-27T16:47:43.124Z,100872.07
2018-04-27T16:50:46.526Z,100862.07
2018-04-27T16:53:49.787Z,100862.09
2018-04-27T16:56:53.164Z,100861.49
2018-04-27T16:59:57.596Z,100862.35
2018-04-27T17:03:00.860Z,100861.85
2018-04-27T17:06:04.144Z,100863.50
2018-04-27T17:09:07.432Z,100866.72
2018-04-27T17:12:10.925Z,100862.95
2018-04-27T17:15:14.204Z,100863.79
2018-04-27T17:18:17.603Z,100861.85
2018-04-27T17:21:20.928Z,100866.87
2018-04-27T17:24:24.348Z,100871.70
2018-04-27T17:27:28.204Z,100877.28
2018-04-27T17:30:31.416Z,100880.73
2018-04-27T17:33:34.628Z,100883.05
2018-04-27T17:36:38.059Z,100886.92
2018-04-27T17:39:41.442Z,100891.33
2018-04-27T17:42:44.614Z,100887.99
2018-04-27T17:45:48.029Z,100890.83
2018-04-27T17:48:51.250Z,100899.72
2018-04-27T17:51:54.487Z,100905.30
2018-04-27T17:54:58.190Z,100902.10
2018-04-27T17:58:01.512Z,100899.05
2018-04-27T18:01:04.863Z,100912.06
2018-04-27T18:04:08.127Z,100914.52
2018-04-27T18:07:11.529Z,100924.74
2018-04-27T18:10:14.841Z,100927.08
2018-04-27T18:13:18.052Z,100926.07
2018-04-27T18:16:21.276Z,100934.55
2018-04-27T18:19:24.575Z,100939.62
2018-04-27T18:22:28.279Z,100945.20
2018-04-27T18:25:31.542Z,100953.08
2018-04-27T18:28:34.945Z,100951.72
2018-04-27T18:31:38.579Z,100953.53
2018-04-27T18:34:41.860Z,100961.50
2018-04-27T18:37:45.280Z,100973.16
2018-04-27T18:40:48.544Z,100973.67
2018-04-27T18:43:52.037Z,100976.59
2018-04-27T18:46:55.588Z,100976.52
2018-04-27T18:50:00.470Z,100976.11
2018-04-27T18:53:04.100Z,100975.06
2018-04-27T18:56:07.431Z,100980.02
2018-04-27T18:59:10.708Z,100981.49
2018-04-27T19:02:14.012Z,100982.58
2018-04-27T19:05:17.412Z,100982.56
2018-04-27T19:08:20.840Z,100987.00
2018-04-27T19:11:24.335Z,100992.39
2018-04-27T19:14:28.789Z,100993.42
2018-04-27T19:17:32.448Z,101006.09
2018-04-27T19:20:35.746Z,101005.25
2018-04-27T19:23:39.147Z,101012.07
2018-04-27T19:26:42.544Z,101010.41
2018-04-27T19:29:45.857Z,101015.79
2018-04-27T19:32:49.177Z,101020.18
2018-04-27T19:35:52.490Z,101023.04
2018-04-27T19:38:55.856Z,101031.00
2018-04-27T19:41:59.188Z,101036.84
2018-04-27T19:45:02.456Z,101038.91
2018-04-27T19:48:05.759Z,101048.54
2018-04-27T19:51:09.143Z,101048.41
2018-04-27T19:54:12.464Z,101056.50
2018-04-27T19:57:16.777Z,101065.22
2018-04-27T20:00:20.928Z,101074.16
2018-04-27T20:03:24.376Z,101079.82
2018-04-27T20:06:27.787Z,101087.25
2018-04-27T20:09:31.061Z,101091.92
2018-04-27T20:12:34.572Z,101098.00
2018-04-27T20:15:37.907Z,101107.49
2018-04-27T20:18:41.228Z,101108.61
2018-04-27T20:21:44.665Z,101110.52
2018-04-27T20:24:48.029Z,101112.64
2018-04-27T20:27:51.452Z,101124.76
2018-04-27T20:30:55.536Z,101127.50
2018-04-27T20:33:59.157Z,101133.29
2018-04-27T20:37:03.048Z,101128.74
2018-04-27T20:40:06.402Z,101136.66
2018-04-27T20:43:09.898Z,101139.66
2018-04-27T20:46:13.296Z,101143.64
2018-04-27T20:49:16.556Z,101148.13
2018-04-27T20:52:20.071Z,101153.32
2018-04-27T20:55:23.920Z,101155.26
2018-04-27T20:58:28.281Z,101159.98
2018-04-27T21:01:31.763Z,101157.38
2018-04-27T21:04:35.139Z,101161.94
2018-04-27T21:07:38.448Z,101167.47
2018-04-27T21:10:41.791Z,101161.12
2018-04-27T21:13:45.073Z,101166.16
2018-04-27T21:16:48.335Z,101167.59
2018-04-27T21:19:51.996Z,101162.42
2018-04-27T21:22:56.093Z,101159.87
2018-04-27T21:25:59.425Z,101156.50
2018-04-27T21:29:02.732Z,101165.36
2018-04-27T21:32:07.227Z,101171.89
2018-04-27T21:35:10.681Z,101174.97
2018-04-27T21:38:13.957Z,101187.39
2018-04-27T21:41:19.070Z,101193.15
2018-04-27T21:44:22.434Z,101201.69
2018-04-27T21:47:25.834Z,101206.91
2018-04-27T21:50:29.299Z,101208.38
2018-04-27T21:53:32.688Z,101210.58
2018-04-27T21:56:36.334Z,101213.68
2018-04-27T21:59:39.834Z,101224.75
2018-04-27T22:02:44.230Z,101228.79
2018-04-27T22:05:48.011Z,101220.77
2018-04-27T22:08:51.443Z,101227.29
2018-04-27T22:11:54.828Z,101238.39
2018-04-27T22:14:58.060Z,101240.74
2018-04-27T22:18:01.409Z,101246.90
2018-04-27T22:21:04.860Z,101255.77
2018-04-27T22:24:08.236Z,101258.24
2018-04-27T22:27:11.551Z,101266.80
2018-04-27T22:30:15.016Z,101267.90
2018-04-27T22:33:19.459Z,101277.85
2018-04-27T22:36:22.986Z,101272.70
2018-04-27T22:39:31.025Z,101278.52
2018-04-27T22:42:34.913Z,101280.65
2018-04-27T22:45:38.393Z,101286.59
2018-04-27T22:48:42.152Z,101292.32
2018-04-27T22:51:45.504Z,101297.44
2018-04-27T22:54:49.006Z,101294.13
2018-04-27T22:57:52.402Z,101299.67
2018-04-27T23:00:55.789Z,101300.86
2018-04-27T23:04:00.006Z,101306.45
2018-04-27T23:07:03.238Z,101313.75
2018-04-27T23:10:06.768Z,101317.49
2018-04-27T23:13:10.124Z,101313.70
2018-04-27T23:16:13.492Z,101323.91
2018-04-27T23:19:17.229Z,101327.58
2018-04-27T23:22:29.376Z,101328.11
2018-04-27T23:25:32.664Z,101330.03
2018-04-27T23:28:35.928Z,101329.12
2018-04-27T23:31:40.592Z,101326.21
2018-04-27T23:34:43.955Z,101329.48
2018-04-27T23:37:47.359Z,101330.00
2018-04-27T23:40:50.746Z,101338.37
2018-04-27T23:43:53.955Z,101339.08
2018-04-27T23:46:57.340Z,101341.07
2018-04-27T23:50:00.685Z,101342.09
2018-04-27T23:53:04.241Z,101339.67
2018-04-27T23:56:07.597Z,101339.81
2018-04-27T23:59:11.080Z,101344.47
